sensor_id;sensor_type;location;lat;lon;timestamp;P1;durP1;ratioP1;P2;durP2;ratioP2
28958;SDS011;16066;0.000;0.000;2023-02-15T00:01:35;17.73;;;13.10;;
28958;SDS011;16066;0.000;0.000;2023-02-15T00:04:02;18.70;;;12.87;;
28958;SDS011;16066;0.000;0.000;2023-02-15T00:06:29;18.73;;;14.40;;
28958;SDS011;16066;0.000;0.000;2023-02-15T00:08:55;18.70;;;13.40;;
28958;SDS011;16066;0.000;0.000;2023-02-15T00:11:21;18.07;;;13.00;;
28958;SDS011;16066;0.000;0.000;2023-02-15T00:16:35;20.57;;;13.70;;
28958;SDS011;16066;0.000;0.000;2023-02-15T00:19:01;16.00;;;12.20;;
28958;SDS011;16066;0.000;0.000;2023-02-15T00:21:27;18.00;;;13.60;;
28958;SDS011;16066;0.000;0.000;2023-02-15T00:23:54;17.53;;;13.50;;
28958;SDS011;16066;0.000;0.000;2023-02-15T00:26:20;18.20;;;14.10;;
28958;SDS011;16066;0.000;0.000;2023-02-15T00:28:46;18.37;;;13.80;;
28958;SDS011;16066;0.000;0.000;2023-02-15T00:31:12;19.30;;;14.20;;
28958;SDS011;16066;0.000;0.000;2023-02-15T00:33:38;21.67;;;15.10;;
28958;SDS011;16066;0.000;0.000;2023-02-15T00:36:05;19.63;;;14.67;;
28958;SDS011;16066;0.000;0.000;2023-02-15T00:38:32;17.67;;;13.13;;
28958;SDS011;16066;0.000;0.000;2023-02-15T00:40:59;19.70;;;13.87;;
28958;SDS011;16066;0.000;0.000;2023-02-15T00:43:28;20.70;;;13.53;;
28958;SDS011;16066;0.000;0.000;2023-02-15T00:45:54;18.13;;;13.70;;
28958;SDS011;16066;0.000;0.000;2023-02-15T00:48:21;20.13;;;15.23;;
28958;SDS011;16066;0.000;0.000;2023-02-15T00:50:48;18.10;;;14.10;;
28958;SDS011;16066;0.000;0.000;2023-02-15T00:53:15;19.50;;;14.50;;
28958;SDS011;16066;0.000;0.000;2023-02-15T00:55:41;18.43;;;13.63;;
28958;SDS011;16066;0.000;0.000;2023-02-15T00:58:07;17.67;;;13.93;;
28958;SDS011;16066;0.000;0.000;2023-02-15T01:00:34;19.77;;;14.47;;
28958;SDS011;16066;0.000;0.000;2023-02-15T01:03:00;21.27;;;16.40;;
28958;SDS011;16066;0.000;0.000;2023-02-15T01:05:25;22.03;;;14.70;;
28958;SDS011;16066;0.000;0.000;2023-02-15T01:07:51;20.70;;;14.97;;
28958;SDS011;16066;0.000;0.000;2023-02-15T01:10:17;22.30;;;15.10;;
28958;SDS011;16066;0.000;0.000;2023-02-15T01:12:42;21.20;;;15.30;;
28958;SDS011;16066;0.000;0.000;2023-02-15T01:15:08;20.07;;;15.33;;
28958;SDS011;16066;0.000;0.000;2023-02-15T01:17:34;23.13;;;16.20;;
28958;SDS011;16066;0.000;0.000;2023-02-15T01:19:59;21.90;;;14.70;;
28958;SDS011;16066;0.000;0.000;2023-02-15T01:22:25;20.50;;;15.03;;
28958;SDS011;16066;0.000;0.000;2023-02-15T01:24:51;19.30;;;14.50;;
28958;SDS011;16066;0.000;0.000;2023-02-15T01:27:17;20.20;;;15.50;;
28958;SDS011;16066;0.000;0.000;2023-02-15T01:29:42;20.83;;;15.00;;
28958;SDS011;16066;0.000;0.000;2023-02-15T01:32:08;22.53;;;15.10;;
28958;SDS011;16066;0.000;0.000;2023-02-15T01:34:34;21.33;;;15.50;;
28958;SDS011;16066;0.000;0.000;2023-02-15T01:36:59;21.40;;;14.93;;
28958;SDS011;16066;0.000;0.000;2023-02-15T01:39:25;22.10;;;15.67;;
28958;SDS011;16066;0.000;0.000;2023-02-15T01:41:50;20.20;;;14.83;;
28958;SDS011;16066;0.000;0.000;2023-02-15T01:47:18;18.80;;;14.90;;
28958;SDS011;16066;0.000;0.000;2023-02-15T01:49:48;22.13;;;15.17;;
28958;SDS011;16066;0.000;0.000;2023-02-15T01:52:30;20.80;;;15.60;;
28958;SDS011;16066;0.000;0.000;2023-02-15T01:54:55;21.80;;;15.67;;
28958;SDS011;16066;0.000;0.000;2023-02-15T01:57:22;20.83;;;15.27;;
28958;SDS011;16066;0.000;0.000;2023-02-15T01:59:56;20.03;;;14.70;;
28958;SDS011;16066;0.000;0.000;2023-02-15T02:02:25;21.67;;;15.43;;
28958;SDS011;16066;0.000;0.000;2023-02-15T02:04:57;22.30;;;15.97;;
28958;SDS011;16066;0.000;0.000;2023-02-15T02:07:28;22.77;;;14.87;;
28958;SDS011;16066;0.000;0.000;2023-02-15T02:09:57;21.07;;;15.00;;
28958;SDS011;16066;0.000;0.000;2023-02-15T02:12:23;18.90;;;14.23;;
28958;SDS011;16066;0.000;0.000;2023-02-15T02:14:49;23.70;;;15.70;;
28958;SDS011;16066;0.000;0.000;2023-02-15T02:17:31;20.10;;;15.80;;
28958;SDS011;16066;0.000;0.000;2023-02-15T02:20:16;21.50;;;14.83;;
28958;SDS011;16066;0.000;0.000;2023-02-15T02:31:31;23.17;;;15.67;;
28958;SDS011;16066;0.000;0.000;2023-02-15T02:34:45;23.17;;;16.03;;
28958;SDS011;16066;0.000;0.000;2023-02-15T02:37:26;21.03;;;14.63;;
28958;SDS011;16066;0.000;0.000;2023-02-15T02:40:05;22.90;;;15.83;;
28958;SDS011;16066;0.000;0.000;2023-02-15T02:42:43;19.67;;;15.37;;
28958;SDS011;16066;0.000;0.000;2023-02-15T02:48:07;19.97;;;15.50;;
28958;SDS011;16066;0.000;0.000;2023-02-15T02:50:38;23.23;;;16.30;;
28958;SDS011;16066;0.000;0.000;2023-02-15T02:53:05;19.67;;;14.90;;
28958;SDS011;16066;0.000;0.000;2023-02-15T02:58:06;18.40;;;14.93;;
28958;SDS011;16066;0.000;0.000;2023-02-15T03:00:51;20.30;;;15.10;;
28958;SDS011;16066;0.000;0.000;2023-02-15T03:03:28;22.20;;;14.80;;
28958;SDS011;16066;0.000;0.000;2023-02-15T03:05:59;23.47;;;15.50;;
28958;SDS011;16066;0.000;0.000;2023-02-15T03:08:33;20.00;;;15.00;;
28958;SDS011;16066;0.000;0.000;2023-02-15T03:11:02;23.27;;;16.30;;
28958;SDS011;16066;0.000;0.000;2023-02-15T03:13:29;21.47;;;16.53;;
28958;SDS011;16066;0.000;0.000;2023-02-15T03:15:55;22.83;;;15.33;;
28958;SDS011;16066;0.000;0.000;2023-02-15T03:18:43;20.97;;;14.73;;
28958;SDS011;16066;0.000;0.000;2023-02-15T03:21:17;20.37;;;15.23;;
28958;SDS011;16066;0.000;0.000;2023-02-15T03:23:48;21.77;;;15.40;;
28958;SDS011;16066;0.000;0.000;2023-02-15T03:26:17;20.90;;;15.77;;
28958;SDS011;16066;0.000;0.000;2023-02-15T03:28:43;18.77;;;13.93;;
28958;SDS011;16066;0.000;0.000;2023-02-15T03:31:13;19.60;;;14.33;;
28958;SDS011;16066;0.000;0.000;2023-02-15T03:33:42;21.30;;;14.60;;
28958;SDS011;16066;0.000;0.000;2023-02-15T03:36:19;23.93;;;15.90;;
28958;SDS011;16066;0.000;0.000;2023-02-15T03:38:53;21.17;;;14.97;;
28958;SDS011;16066;0.000;0.000;2023-02-15T03:41:25;24.30;;;16.77;;
28958;SDS011;16066;0.000;0.000;2023-02-15T03:44:01;25.70;;;14.83;;
28958;SDS011;16066;0.000;0.000;2023-02-15T03:46:42;18.90;;;14.40;;
28958;SDS011;16066;0.000;0.000;2023-02-15T03:49:11;20.10;;;15.20;;
28958;SDS011;16066;0.000;0.000;2023-02-15T03:51:47;18.87;;;14.23;;
28958;SDS011;16066;0.000;0.000;2023-02-15T03:54:17;20.60;;;15.40;;
28958;SDS011;16066;0.000;0.000;2023-02-15T03:57:06;19.87;;;14.20;;
28958;SDS011;16066;0.000;0.000;2023-02-15T04:00:02;22.33;;;15.93;;
28958;SDS011;16066;0.000;0.000;2023-02-15T04:05:45;25.10;;;14.83;;
28958;SDS011;16066;0.000;0.000;2023-02-15T04:08:11;21.37;;;15.67;;
28958;SDS011;16066;0.000;0.000;2023-02-15T04:10:37;19.33;;;14.70;;
28958;SDS011;16066;0.000;0.000;2023-02-15T04:13:19;23.03;;;16.20;;
28958;SDS011;16066;0.000;0.000;2023-02-15T04:15:45;21.20;;;14.80;;
28958;SDS011;16066;0.000;0.000;2023-02-15T04:18:32;21.43;;;15.10;;
28958;SDS011;16066;0.000;0.000;2023-02-15T04:21:21;20.90;;;14.70;;
28958;SDS011;16066;0.000;0.000;2023-02-15T04:24:07;20.57;;;14.03;;
28958;SDS011;16066;0.000;0.000;2023-02-15T04:26:52;19.63;;;14.40;;
28958;SDS011;16066;0.000;0.000;2023-02-15T04:29:18;18.67;;;13.80;;
28958;SDS011;16066;0.000;0.000;2023-02-15T04:31:45;22.00;;;14.97;;
28958;SDS011;16066;0.000;0.000;2023-02-15T04:34:10;19.93;;;14.50;;
28958;SDS011;16066;0.000;0.000;2023-02-15T04:36:37;20.40;;;14.93;;
28958;SDS011;16066;0.000;0.000;2023-02-15T04:39:03;19.63;;;13.53;;
28958;SDS011;16066;0.000;0.000;2023-02-15T04:41:29;19.77;;;14.30;;
28958;SDS011;16066;0.000;0.000;2023-02-15T04:43:54;17.87;;;13.60;;
28958;SDS011;16066;0.000;0.000;2023-02-15T04:46:21;21.70;;;14.90;;
28958;SDS011;16066;0.000;0.000;2023-02-15T04:48:46;20.83;;;15.07;;
28958;SDS011;16066;0.000;0.000;2023-02-15T04:51:12;19.40;;;13.80;;
28958;SDS011;16066;0.000;0.000;2023-02-15T04:53:37;19.40;;;13.73;;
28958;SDS011;16066;0.000;0.000;2023-02-15T04:56:03;20.57;;;14.40;;
28958;SDS011;16066;0.000;0.000;2023-02-15T04:58:29;21.03;;;14.43;;
28958;SDS011;16066;0.000;0.000;2023-02-15T05:00:54;20.40;;;15.03;;
28958;SDS011;16066;0.000;0.000;2023-02-15T05:03:20;19.00;;;14.10;;
28958;SDS011;16066;0.000;0.000;2023-02-15T05:05:46;16.50;;;13.60;;
28958;SDS011;16066;0.000;0.000;2023-02-15T05:08:11;19.77;;;15.00;;
28958;SDS011;16066;0.000;0.000;2023-02-15T05:10:37;18.90;;;14.40;;
28958;SDS011;16066;0.000;0.000;2023-02-15T05:13:02;19.10;;;13.87;;
28958;SDS011;16066;0.000;0.000;2023-02-15T05:15:28;19.83;;;13.93;;
28958;SDS011;16066;0.000;0.000;2023-02-15T05:17:53;17.13;;;12.53;;
28958;SDS011;16066;0.000;0.000;2023-02-15T05:20:19;21.37;;;15.30;;
28958;SDS011;16066;0.000;0.000;2023-02-15T05:22:44;17.80;;;13.00;;
28958;SDS011;16066;0.000;0.000;2023-02-15T05:25:10;17.60;;;12.63;;
28958;SDS011;16066;0.000;0.000;2023-02-15T05:27:54;16.60;;;12.07;;
28958;SDS011;16066;0.000;0.000;2023-02-15T05:30:38;17.63;;;12.13;;
28958;SDS011;16066;0.000;0.000;2023-02-15T05:33:04;16.40;;;12.30;;
28958;SDS011;16066;0.000;0.000;2023-02-15T05:35:31;16.20;;;12.17;;
28958;SDS011;16066;0.000;0.000;2023-02-15T05:37:57;18.00;;;13.00;;
28958;SDS011;16066;0.000;0.000;2023-02-15T05:40:22;15.73;;;12.17;;
28958;SDS011;16066;0.000;0.000;2023-02-15T05:42:48;16.00;;;11.60;;
28958;SDS011;16066;0.000;0.000;2023-02-15T05:45:14;16.90;;;11.83;;
28958;SDS011;16066;0.000;0.000;2023-02-15T05:47:40;14.70;;;11.37;;
28958;SDS011;16066;0.000;0.000;2023-02-15T05:50:06;18.23;;;12.10;;
28958;SDS011;16066;0.000;0.000;2023-02-15T05:52:32;15.50;;;11.27;;
28958;SDS011;16066;0.000;0.000;2023-02-15T05:54:58;17.50;;;11.63;;
28958;SDS011;16066;0.000;0.000;2023-02-15T05:57:25;15.57;;;11.90;;
28958;SDS011;16066;0.000;0.000;2023-02-15T05:59:51;15.70;;;11.50;;
28958;SDS011;16066;0.000;0.000;2023-02-15T06:02:16;17.20;;;12.37;;
28958;SDS011;16066;0.000;0.000;2023-02-15T06:04:42;16.63;;;11.73;;
28958;SDS011;16066;0.000;0.000;2023-02-15T06:07:07;18.50;;;12.87;;
28958;SDS011;16066;0.000;0.000;2023-02-15T06:09:33;18.23;;;12.53;;
28958;SDS011;16066;0.000;0.000;2023-02-15T06:11:58;17.13;;;12.67;;
28958;SDS011;16066;0.000;0.000;2023-02-15T06:14:24;15.97;;;11.87;;
28958;SDS011;16066;0.000;0.000;2023-02-15T06:16:49;19.93;;;13.40;;
28958;SDS011;16066;0.000;0.000;2023-02-15T06:19:15;20.73;;;14.37;;
28958;SDS011;16066;0.000;0.000;2023-02-15T06:21:40;19.40;;;13.37;;
28958;SDS011;16066;0.000;0.000;2023-02-15T06:24:08;18.03;;;12.73;;
28958;SDS011;16066;0.000;0.000;2023-02-15T06:26:34;19.93;;;14.57;;
28958;SDS011;16066;0.000;0.000;2023-02-15T06:28:59;19.80;;;13.77;;
28958;SDS011;16066;0.000;0.000;2023-02-15T06:31:25;19.47;;;13.97;;
28958;SDS011;16066;0.000;0.000;2023-02-15T06:33:50;19.93;;;13.80;;
28958;SDS011;16066;0.000;0.000;2023-02-15T06:36:16;19.80;;;13.87;;
28958;SDS011;16066;0.000;0.000;2023-02-15T06:38:41;18.67;;;14.13;;
28958;SDS011;16066;0.000;0.000;2023-02-15T06:41:07;19.03;;;14.13;;
28958;SDS011;16066;0.000;0.000;2023-02-15T06:43:32;19.17;;;14.17;;
28958;SDS011;16066;0.000;0.000;2023-02-15T06:45:59;16.93;;;12.87;;
28958;SDS011;16066;0.000;0.000;2023-02-15T06:48:24;17.80;;;12.73;;
28958;SDS011;16066;0.000;0.000;2023-02-15T06:50:50;17.83;;;13.70;;
28958;SDS011;16066;0.000;0.000;2023-02-15T06:53:15;17.60;;;13.40;;
28958;SDS011;16066;0.000;0.000;2023-02-15T06:55:41;19.30;;;13.07;;
28958;SDS011;16066;0.000;0.000;2023-02-15T06:58:06;19.63;;;13.40;;
28958;SDS011;16066;0.000;0.000;2023-02-15T07:00:32;18.03;;;13.47;;
28958;SDS011;16066;0.000;0.000;2023-02-15T07:02:58;18.93;;;13.53;;
28958;SDS011;16066;0.000;0.000;2023-02-15T07:05:24;18.50;;;12.77;;
28958;SDS011;16066;0.000;0.000;2023-02-15T07:07:55;17.87;;;12.83;;
28958;SDS011;16066;0.000;0.000;2023-02-15T07:10:21;17.47;;;12.80;;
28958;SDS011;16066;0.000;0.000;2023-02-15T07:12:47;18.53;;;13.20;;
28958;SDS011;16066;0.000;0.000;2023-02-15T07:15:14;17.13;;;12.37;;
28958;SDS011;16066;0.000;0.000;2023-02-15T07:17:41;15.97;;;11.80;;
28958;SDS011;16066;0.000;0.000;2023-02-15T07:20:13;18.97;;;12.93;;
28958;SDS011;16066;0.000;0.000;2023-02-15T07:22:41;16.67;;;12.23;;
28958;SDS011;16066;0.000;0.000;2023-02-15T07:25:08;16.17;;;12.13;;
28958;SDS011;16066;0.000;0.000;2023-02-15T07:27:34;17.53;;;12.80;;
28958;SDS011;16066;0.000;0.000;2023-02-15T07:30:00;21.13;;;12.97;;
28958;SDS011;16066;0.000;0.000;2023-02-15T07:32:29;16.93;;;12.70;;
28958;SDS011;16066;0.000;0.000;2023-02-15T07:34:55;18.07;;;12.10;;
28958;SDS011;16066;0.000;0.000;2023-02-15T07:37:21;21.37;;;11.97;;
28958;SDS011;16066;0.000;0.000;2023-02-15T07:39:46;22.20;;;12.30;;
28958;SDS011;16066;0.000;0.000;2023-02-15T07:42:12;15.63;;;11.30;;
28958;SDS011;16066;0.000;0.000;2023-02-15T07:44:37;14.27;;;11.37;;
28958;SDS011;16066;0.000;0.000;2023-02-15T07:47:03;17.03;;;12.43;;
28958;SDS011;16066;0.000;0.000;2023-02-15T07:49:28;17.70;;;12.10;;
28958;SDS011;16066;0.000;0.000;2023-02-15T07:51:54;16.00;;;10.87;;
28958;SDS011;16066;0.000;0.000;2023-02-15T07:54:19;16.60;;;11.00;;
28958;SDS011;16066;0.000;0.000;2023-02-15T07:56:45;16.43;;;11.20;;
28958;SDS011;16066;0.000;0.000;2023-02-15T07:59:10;19.30;;;11.43;;
28958;SDS011;16066;0.000;0.000;2023-02-15T08:01:37;13.80;;;10.60;;
28958;SDS011;16066;0.000;0.000;2023-02-15T08:04:03;14.80;;;11.07;;
28958;SDS011;16066;0.000;0.000;2023-02-15T08:06:31;13.70;;;11.27;;
28958;SDS011;16066;0.000;0.000;2023-02-15T08:08:59;14.30;;;10.80;;
28958;SDS011;16066;0.000;0.000;2023-02-15T08:11:26;14.23;;;10.00;;
28958;SDS011;16066;0.000;0.000;2023-02-15T08:16:42;15.80;;;10.43;;
28958;SDS011;16066;0.000;0.000;2023-02-15T08:21:43;19.30;;;10.67;;
28958;SDS011;16066;0.000;0.000;2023-02-15T08:24:14;14.10;;;10.40;;
28958;SDS011;16066;0.000;0.000;2023-02-15T08:26:41;16.20;;;11.77;;
28958;SDS011;16066;0.000;0.000;2023-02-15T08:29:06;15.80;;;11.30;;
28958;SDS011;16066;0.000;0.000;2023-02-15T08:31:33;16.30;;;11.63;;
28958;SDS011;16066;0.000;0.000;2023-02-15T08:33:59;16.07;;;12.30;;
28958;SDS011;16066;0.000;0.000;2023-02-15T08:36:28;16.60;;;12.20;;
28958;SDS011;16066;0.000;0.000;2023-02-15T08:39:00;17.07;;;11.63;;
28958;SDS011;16066;0.000;0.000;2023-02-15T08:41:28;21.13;;;13.03;;
28958;SDS011;16066;0.000;0.000;2023-02-15T08:44:00;17.60;;;12.67;;
28958;SDS011;16066;0.000;0.000;2023-02-15T08:46:28;17.80;;;12.63;;
28958;SDS011;16066;0.000;0.000;2023-02-15T08:48:55;17.47;;;12.53;;
28958;SDS011;16066;0.000;0.000;2023-02-15T08:51:22;18.33;;;13.47;;
28958;SDS011;16066;0.000;0.000;2023-02-15T08:53:50;24.40;;;13.20;;
28958;SDS011;16066;0.000;0.000;2023-02-15T08:56:18;21.07;;;14.23;;
28958;SDS011;16066;0.000;0.000;2023-02-15T08:58:45;18.80;;;13.13;;
28958;SDS011;16066;0.000;0.000;2023-02-15T09:01:11;19.17;;;13.93;;
28958;SDS011;16066;0.000;0.000;2023-02-15T09:03:42;18.77;;;13.17;;
28958;SDS011;16066;0.000;0.000;2023-02-15T09:06:09;18.93;;;13.43;;
28958;SDS011;16066;0.000;0.000;2023-02-15T09:08:35;17.97;;;13.37;;
28958;SDS011;16066;0.000;0.000;2023-02-15T09:13:34;20.03;;;14.63;;
28958;SDS011;16066;0.000;0.000;2023-02-15T09:16:04;20.97;;;14.70;;
28958;SDS011;16066;0.000;0.000;2023-02-15T09:18:33;20.03;;;13.97;;
28958;SDS011;16066;0.000;0.000;2023-02-15T09:21:06;17.10;;;12.70;;
28958;SDS011;16066;0.000;0.000;2023-02-15T09:23:33;21.10;;;13.47;;
28958;SDS011;16066;0.000;0.000;2023-02-15T09:26:03;17.63;;;12.80;;
28958;SDS011;16066;0.000;0.000;2023-02-15T09:28:30;18.50;;;13.80;;
28958;SDS011;16066;0.000;0.000;2023-02-15T09:31:04;19.77;;;13.63;;
28958;SDS011;16066;0.000;0.000;2023-02-15T09:33:38;19.87;;;14.13;;
28958;SDS011;16066;0.000;0.000;2023-02-15T09:36:05;17.30;;;13.20;;
28958;SDS011;16066;0.000;0.000;2023-02-15T09:38:38;21.97;;;15.07;;
28958;SDS011;16066;0.000;0.000;2023-02-15T09:41:08;18.50;;;13.13;;
28958;SDS011;16066;0.000;0.000;2023-02-15T09:49:11;19.73;;;13.80;;
28958;SDS011;16066;0.000;0.000;2023-02-15T09:51:59;16.20;;;11.33;;
28958;SDS011;16066;0.000;0.000;2023-02-15T10:00:23;20.13;;;13.90;;
28958;SDS011;16066;0.000;0.000;2023-02-15T10:03:21;18.07;;;12.30;;
28958;SDS011;16066;0.000;0.000;2023-02-15T10:08:39;18.57;;;13.00;;
28958;SDS011;16066;0.000;0.000;2023-02-15T10:11:17;18.53;;;13.20;;
28958;SDS011;16066;0.000;0.000;2023-02-15T10:19:37;13.60;;;10.30;;
28958;SDS011;16066;0.000;0.000;2023-02-15T10:25:56;15.53;;;11.10;;
28958;SDS011;16066;0.000;0.000;2023-02-15T10:28:42;16.50;;;12.23;;
28958;SDS011;16066;0.000;0.000;2023-02-15T10:37:14;17.70;;;10.03;;
28958;SDS011;16066;0.000;0.000;2023-02-15T10:43:07;13.30;;;10.23;;
28958;SDS011;16066;0.000;0.000;2023-02-15T10:46:23;13.57;;;9.83;;
28958;SDS011;16066;0.000;0.000;2023-02-15T10:54:43;12.03;;;9.07;;
28958;SDS011;16066;0.000;0.000;2023-02-15T10:57:34;13.40;;;9.40;;
28958;SDS011;16066;0.000;0.000;2023-02-15T11:07:40;13.40;;;9.67;;
28958;SDS011;16066;0.000;0.000;2023-02-15T11:10:28;11.10;;;8.10;;
28958;SDS011;16066;0.000;0.000;2023-02-15T11:13:02;13.00;;;9.07;;
28958;SDS011;16066;0.000;0.000;2023-02-15T11:15:50;17.50;;;9.57;;
28958;SDS011;16066;0.000;0.000;2023-02-15T11:21:11;14.50;;;9.50;;
28958;SDS011;16066;0.000;0.000;2023-02-15T11:23:44;10.97;;;8.93;;
28958;SDS011;16066;0.000;0.000;2023-02-15T11:26:45;12.00;;;8.80;;
28958;SDS011;16066;0.000;0.000;2023-02-15T11:29:20;13.13;;;8.00;;
28958;SDS011;16066;0.000;0.000;2023-02-15T11:31:57;11.33;;;8.27;;
28958;SDS011;16066;0.000;0.000;2023-02-15T11:34:29;10.57;;;8.17;;
28958;SDS011;16066;0.000;0.000;2023-02-15T11:37:01;10.40;;;7.60;;
28958;SDS011;16066;0.000;0.000;2023-02-15T11:39:31;10.27;;;7.87;;
28958;SDS011;16066;0.000;0.000;2023-02-15T11:42:00;12.00;;;8.00;;
28958;SDS011;16066;0.000;0.000;2023-02-15T11:46:59;12.97;;;7.90;;
28958;SDS011;16066;0.000;0.000;2023-02-15T11:49:33;11.57;;;7.97;;
28958;SDS011;16066;0.000;0.000;2023-02-15T11:52:00;12.60;;;7.60;;
28958;SDS011;16066;0.000;0.000;2023-02-15T11:54:31;10.80;;;7.60;;
28958;SDS011;16066;0.000;0.000;2023-02-15T11:57:44;9.77;;;7.43;;
28958;SDS011;16066;0.000;0.000;2023-02-15T12:00:14;9.97;;;7.77;;
28958;SDS011;16066;0.000;0.000;2023-02-15T12:02:54;10.57;;;7.73;;
28958;SDS011;16066;0.000;0.000;2023-02-15T12:05:42;11.53;;;7.17;;
28958;SDS011;16066;0.000;0.000;2023-02-15T12:08:19;9.37;;;7.40;;
28958;SDS011;16066;0.000;0.000;2023-02-15T12:10:56;10.53;;;7.80;;
28958;SDS011;16066;0.000;0.000;2023-02-15T12:13:25;10.83;;;7.90;;
28958;SDS011;16066;0.000;0.000;2023-02-15T12:15:52;13.33;;;7.03;;
28958;SDS011;16066;0.000;0.000;2023-02-15T12:20:59;10.97;;;8.00;;
28958;SDS011;16066;0.000;0.000;2023-02-15T12:23:30;9.30;;;7.10;;
28958;SDS011;16066;0.000;0.000;2023-02-15T12:25:57;11.30;;;7.63;;
28958;SDS011;16066;0.000;0.000;2023-02-15T12:30:58;10.67;;;8.10;;
28958;SDS011;16066;0.000;0.000;2023-02-15T12:33:41;14.30;;;7.80;;
28958;SDS011;16066;0.000;0.000;2023-02-15T12:36:24;10.03;;;7.10;;
28958;SDS011;16066;0.000;0.000;2023-02-15T12:41:29;13.90;;;6.97;;
28958;SDS011;16066;0.000;0.000;2023-02-15T12:44:05;10.47;;;7.20;;
28958;SDS011;16066;0.000;0.000;2023-02-15T12:46:31;11.63;;;8.00;;
28958;SDS011;16066;0.000;0.000;2023-02-15T12:54:21;9.83;;;7.00;;
28958;SDS011;16066;0.000;0.000;2023-02-15T12:59:49;10.23;;;7.40;;
28958;SDS011;16066;0.000;0.000;2023-02-15T13:02:27;10.67;;;7.67;;
28958;SDS011;16066;0.000;0.000;2023-02-15T13:04:56;11.17;;;7.97;;
28958;SDS011;16066;0.000;0.000;2023-02-15T13:07:29;12.60;;;9.00;;
28958;SDS011;16066;0.000;0.000;2023-02-15T13:09:56;10.13;;;8.00;;
28958;SDS011;16066;0.000;0.000;2023-02-15T13:12:23;13.10;;;7.97;;
28958;SDS011;16066;0.000;0.000;2023-02-15T13:14:52;11.20;;;7.90;;
28958;SDS011;16066;0.000;0.000;2023-02-15T13:17:26;12.63;;;7.50;;
28958;SDS011;16066;0.000;0.000;2023-02-15T13:20:16;14.93;;;7.17;;
28958;SDS011;16066;0.000;0.000;2023-02-15T13:22:44;11.43;;;7.10;;
28958;SDS011;16066;0.000;0.000;2023-02-15T13:27:46;9.80;;;6.80;;
28958;SDS011;16066;0.000;0.000;2023-02-15T13:33:06;12.43;;;7.80;;
28958;SDS011;16066;0.000;0.000;2023-02-15T13:35:48;11.20;;;7.43;;
28958;SDS011;16066;0.000;0.000;2023-02-15T13:38:57;10.67;;;8.50;;
28958;SDS011;16066;0.000;0.000;2023-02-15T13:41:58;9.17;;;8.00;;
28958;SDS011;16066;0.000;0.000;2023-02-15T13:44:31;8.97;;;6.93;;
28958;SDS011;16066;0.000;0.000;2023-02-15T13:47:20;11.90;;;8.20;;
28958;SDS011;16066;0.000;0.000;2023-02-15T13:53:10;10.13;;;7.57;;
28958;SDS011;16066;0.000;0.000;2023-02-15T13:56:10;11.50;;;8.40;;
28958;SDS011;16066;0.000;0.000;2023-02-15T13:59:05;9.17;;;6.50;;
28958;SDS011;16066;0.000;0.000;2023-02-15T14:01:56;11.53;;;7.90;;
28958;SDS011;16066;0.000;0.000;2023-02-15T14:13:05;11.53;;;7.70;;
28958;SDS011;16066;0.000;0.000;2023-02-15T14:15:44;11.20;;;6.97;;
28958;SDS011;16066;0.000;0.000;2023-02-15T14:18:38;13.80;;;8.60;;
28958;SDS011;16066;0.000;0.000;2023-02-15T14:23:56;10.37;;;7.47;;
28958;SDS011;16066;0.000;0.000;2023-02-15T14:31:58;11.00;;;7.80;;
28958;SDS011;16066;0.000;0.000;2023-02-15T14:37:55;10.90;;;7.77;;
28958;SDS011;16066;0.000;0.000;2023-02-15T14:48:52;11.20;;;6.50;;
28958;SDS011;16066;0.000;0.000;2023-02-15T14:54:52;10.20;;;5.97;;
28958;SDS011;16066;0.000;0.000;2023-02-15T14:59:27;8.17;;;6.00;;
28958;SDS011;16066;0.000;0.000;2023-02-15T15:02:30;8.90;;;6.80;;
28958;SDS011;16066;0.000;0.000;2023-02-15T15:07:37;9.50;;;6.40;;
28958;SDS011;16066;0.000;0.000;2023-02-15T15:12:42;8.83;;;6.17;;
28958;SDS011;16066;0.000;0.000;2023-02-15T15:15:13;7.97;;;6.30;;
28958;SDS011;16066;0.000;0.000;2023-02-15T15:18:04;9.03;;;6.60;;
28958;SDS011;16066;0.000;0.000;2023-02-15T15:20:41;7.80;;;6.03;;
28958;SDS011;16066;0.000;0.000;2023-02-15T15:25:40;11.33;;;6.13;;
28958;SDS011;16066;0.000;0.000;2023-02-15T15:28:06;9.60;;;6.37;;
28958;SDS011;16066;0.000;0.000;2023-02-15T15:32:59;9.50;;;5.97;;
28958;SDS011;16066;0.000;0.000;2023-02-15T15:35:54;10.30;;;7.03;;
28958;SDS011;16066;0.000;0.000;2023-02-15T15:47:28;10.00;;;6.87;;
28958;SDS011;16066;0.000;0.000;2023-02-15T15:49:58;9.57;;;7.00;;
28958;SDS011;16066;0.000;0.000;2023-02-15T15:52:24;13.10;;;7.83;;
28958;SDS011;16066;0.000;0.000;2023-02-15T15:54:53;9.83;;;7.20;;
28958;SDS011;16066;0.000;0.000;2023-02-15T15:57:33;10.13;;;7.57;;
28958;SDS011;16066;0.000;0.000;2023-02-15T16:00:03;8.87;;;6.90;;
28958;SDS011;16066;0.000;0.000;2023-02-15T16:02:52;13.37;;;7.43;;
28958;SDS011;16066;0.000;0.000;2023-02-15T16:05:18;8.80;;;7.20;;
28958;SDS011;16066;0.000;0.000;2023-02-15T16:07:44;10.20;;;7.23;;
28958;SDS011;16066;0.000;0.000;2023-02-15T16:10:20;9.43;;;7.23;;
28958;SDS011;16066;0.000;0.000;2023-02-15T16:12:47;11.20;;;7.20;;
28958;SDS011;16066;0.000;0.000;2023-02-15T16:15:15;10.80;;;7.93;;
28958;SDS011;16066;0.000;0.000;2023-02-15T16:17:44;11.97;;;8.17;;
28958;SDS011;16066;0.000;0.000;2023-02-15T16:20:14;12.37;;;8.20;;
28958;SDS011;16066;0.000;0.000;2023-02-15T16:23:09;10.83;;;8.50;;
28958;SDS011;16066;0.000;0.000;2023-02-15T16:28:51;13.57;;;8.50;;
28958;SDS011;16066;0.000;0.000;2023-02-15T16:31:18;11.50;;;8.33;;
28958;SDS011;16066;0.000;0.000;2023-02-15T16:33:44;13.57;;;9.27;;
28958;SDS011;16066;0.000;0.000;2023-02-15T16:36:11;11.00;;;8.20;;
28958;SDS011;16066;0.000;0.000;2023-02-15T16:41:13;12.23;;;9.07;;
28958;SDS011;16066;0.000;0.000;2023-02-15T16:44:13;14.33;;;9.47;;
28958;SDS011;16066;0.000;0.000;2023-02-15T16:46:43;13.60;;;8.87;;
28958;SDS011;16066;0.000;0.000;2023-02-15T16:49:15;11.80;;;9.00;;
28958;SDS011;16066;0.000;0.000;2023-02-15T16:51:53;12.47;;;8.77;;
28958;SDS011;16066;0.000;0.000;2023-02-15T16:54:40;14.60;;;9.70;;
28958;SDS011;16066;0.000;0.000;2023-02-15T16:57:14;12.37;;;9.13;;
28958;SDS011;16066;0.000;0.000;2023-02-15T16:59:44;10.03;;;7.70;;
28958;SDS011;16066;0.000;0.000;2023-02-15T17:02:14;9.27;;;7.03;;
28958;SDS011;16066;0.000;0.000;2023-02-15T17:04:43;9.40;;;6.83;;
28958;SDS011;16066;0.000;0.000;2023-02-15T17:07:17;8.50;;;6.53;;
28958;SDS011;16066;0.000;0.000;2023-02-15T17:09:50;10.30;;;7.63;;
28958;SDS011;16066;0.000;0.000;2023-02-15T17:18:05;12.33;;;8.47;;
28958;SDS011;16066;0.000;0.000;2023-02-15T17:20:48;10.33;;;7.67;;
28958;SDS011;16066;0.000;0.000;2023-02-15T17:28:56;9.70;;;7.23;;
28958;SDS011;16066;0.000;0.000;2023-02-15T17:31:24;9.77;;;7.50;;
28958;SDS011;16066;0.000;0.000;2023-02-15T17:33:53;10.97;;;7.20;;
28958;SDS011;16066;0.000;0.000;2023-02-15T17:36:21;10.53;;;6.90;;
28958;SDS011;16066;0.000;0.000;2023-02-15T17:41:23;9.50;;;6.67;;
28958;SDS011;16066;0.000;0.000;2023-02-15T17:43:49;9.50;;;6.93;;
28958;SDS011;16066;0.000;0.000;2023-02-15T17:46:15;9.57;;;6.80;;
28958;SDS011;16066;0.000;0.000;2023-02-15T17:48:44;11.27;;;7.40;;
28958;SDS011;16066;0.000;0.000;2023-02-15T17:51:12;10.83;;;6.57;;
28958;SDS011;16066;0.000;0.000;2023-02-15T17:53:39;9.03;;;6.73;;
28958;SDS011;16066;0.000;0.000;2023-02-15T17:56:26;9.23;;;6.17;;
28958;SDS011;16066;0.000;0.000;2023-02-15T17:58:51;9.23;;;6.60;;
28958;SDS011;16066;0.000;0.000;2023-02-15T18:01:17;9.30;;;6.50;;
28958;SDS011;16066;0.000;0.000;2023-02-15T18:04:03;7.60;;;5.67;;
28958;SDS011;16066;0.000;0.000;2023-02-15T18:06:50;7.83;;;5.87;;